Terminal Aerodrome Forecast
Issued by NWS Corpus Christi, TX

Home | Current Version | Previous Version | Text Only | Print | Product List | Glossary On
Versions: 1 2 3 4 5 6 7 8 9 10 11 12 13 14 15
000
FTUS44 KCRP 232300
TAFCRP
TAF
KCRP 232336Z 2400/2424 14015KT P6SM SCT050
     FM240100 16005KT P6SM FEW025
     FM240900 VRB02KT 6SM BR FEW015
      TEMPO 2410/2414 4SM BR SCT015
     FM241400 19005KT P6SM SCT025
     FM241800 14012KT P6SM SCT035=

USA.gov is the U.S. government's official web portal to all federal, state and local government web resources and services.